Willow Glen, Louisiana
Current Conditions -  °F | °C
As of 11:53 AM on Thursday 27 Nov 2014 (Local Time) from KAEX Reporting Station
Clear Clear  
Wind Chill: 57°   Ceiling: Unl
Heat Index: 57°   Visibility: 10mi
Dew Point: 28°   Wind: 9mph
Humidity: 33%   Direction: 10°N
Pressure: 30.46"   Gusts: NA
Location:  31.2081°N, 92.3683°W
Report Text: KAEX 271753Z AUTO 01008KT 10SM CLR 14/M02 A3046 RMK AO2 SLP320 T01391022 10139 20033 58010
Loading
Personal Weather Stations






























Interactive Weather Map New forecast layout! Learn more

10-Day Weather Forecast

Advertisements
Track Severe Weather on mobile